sensor_id;sensor_type;location;lat;lon;timestamp;pressure;altitude;pressure_sealevel;temperature;humidity
4199;BME280;2113;50.946;14.610;2022-09-09T00:01:23;96787.16;;;14.72;69.22
4199;BME280;2113;50.946;14.610;2022-09-09T00:03:58;96789.03;;;14.70;69.43
4199;BME280;2113;50.946;14.610;2022-09-09T00:06:30;96790.97;;;14.66;69.27
4199;BME280;2113;50.946;14.610;2022-09-09T00:09:07;96789.03;;;14.70;69.12
4199;BME280;2113;50.946;14.610;2022-09-09T00:11:42;96782.47;;;14.62;68.99
4199;BME280;2113;50.946;14.610;2022-09-09T00:14:20;96778.56;;;14.70;68.83
4199;BME280;2113;50.946;14.610;2022-09-09T00:16:53;96783.09;;;14.50;68.77
4199;BME280;2113;50.946;14.610;2022-09-09T00:19:26;96781.88;;;14.57;68.66
4199;BME280;2113;50.946;14.610;2022-09-09T00:22:10;96776.81;;;14.54;68.63
4199;BME280;2113;50.946;14.610;2022-09-09T00:24:46;96774.88;;;14.42;68.95
4199;BME280;2113;50.946;14.610;2022-09-09T00:27:23;96780.59;;;14.33;69.32
4199;BME280;2113;50.946;14.610;2022-09-09T00:29:58;96785.09;;;14.30;69.30
4199;BME280;2113;50.946;14.610;2022-09-09T00:32:30;96782.31;;;14.34;69.66
4199;BME280;2113;50.946;14.610;2022-09-09T00:35:02;96776.50;;;14.28;69.64
4199;BME280;2113;50.946;14.610;2022-09-09T00:37:32;96772.53;;;14.21;69.35
4199;BME280;2113;50.946;14.610;2022-09-09T00:40:17;96778.69;;;14.20;69.49
4199;BME280;2113;50.946;14.610;2022-09-09T00:42:47;96777.19;;;14.16;69.32
4199;BME280;2113;50.946;14.610;2022-09-09T00:45:34;96774.50;;;14.18;69.24
4199;BME280;2113;50.946;14.610;2022-09-09T00:48:10;96772.72;;;14.18;69.32
4199;BME280;2113;50.946;14.610;2022-09-09T00:50:45;96772.72;;;14.18;69.01
4199;BME280;2113;50.946;14.610;2022-09-09T00:53:24;96772.72;;;14.18;68.88
4199;BME280;2113;50.946;14.610;2022-09-09T00:56:08;96780.47;;;14.04;68.93
4199;BME280;2113;50.946;14.610;2022-09-09T00:58:42;96775.44;;;14.01;68.71
4199;BME280;2113;50.946;14.610;2022-09-09T01:01:11;96770.28;;;13.99;69.08
4199;BME280;2113;50.946;14.610;2022-09-09T01:03:43;96773.22;;;13.93;69.75
4199;BME280;2113;50.946;14.610;2022-09-09T01:06:21;96783.16;;;13.86;69.71
4199;BME280;2113;50.946;14.610;2022-09-09T01:09:10;96780.97;;;13.79;69.62
4199;BME280;2113;50.946;14.610;2022-09-09T01:11:51;96780.13;;;13.62;70.10
4199;BME280;2113;50.946;14.610;2022-09-09T01:14:30;96787.09;;;13.62;70.18
4199;BME280;2113;50.946;14.610;2022-09-09T01:17:01;96789.38;;;13.68;70.25
4199;BME280;2113;50.946;14.610;2022-09-09T01:19:44;96786.19;;;13.79;69.60
4199;BME280;2113;50.946;14.610;2022-09-09T01:22:24;96788.88;;;13.61;70.95
4199;BME280;2113;50.946;14.610;2022-09-09T01:25:13;96789.22;;;13.71;70.58
4199;BME280;2113;50.946;14.610;2022-09-09T01:28:05;96797.66;;;13.76;70.43
4199;BME280;2113;50.946;14.610;2022-09-09T01:30:38;96802.88;;;13.76;70.37
4199;BME280;2113;50.946;14.610;2022-09-09T01:33:36;96799.16;;;13.64;70.54
4199;BME280;2113;50.946;14.610;2022-09-09T01:36:08;96801.19;;;13.75;70.19
4199;BME280;2113;50.946;14.610;2022-09-09T01:38:44;96785.84;;;13.69;70.17
4199;BME280;2113;50.946;14.610;2022-09-09T01:41:14;96786.19;;;13.63;69.89
4199;BME280;2113;50.946;14.610;2022-09-09T01:43:49;96788.66;;;13.48;70.23
4199;BME280;2113;50.946;14.610;2022-09-09T01:46:21;96792.91;;;13.51;70.12
4199;BME280;2113;50.946;14.610;2022-09-09T01:48:51;96788.44;;;13.53;70.31
4199;BME280;2113;50.946;14.610;2022-09-09T01:51:20;96787.97;;;13.62;70.67
4199;BME280;2113;50.946;14.610;2022-09-09T01:53:48;96786.00;;;13.66;70.94
4199;BME280;2113;50.946;14.610;2022-09-09T01:56:28;96785.69;;;13.72;70.00
4199;BME280;2113;50.946;14.610;2022-09-09T01:59:10;96789.97;;;13.57;70.41
4199;BME280;2113;50.946;14.610;2022-09-09T02:01:54;96793.75;;;13.51;70.38
4199;BME280;2113;50.946;14.610;2022-09-09T02:04:34;96784.31;;;13.49;70.61
4199;BME280;2113;50.946;14.610;2022-09-09T02:07:19;96782.53;;;13.49;70.03
4199;BME280;2113;50.946;14.610;2022-09-09T02:09:53;96789.59;;;13.47;70.00
4199;BME280;2113;50.946;14.610;2022-09-09T02:12:25;96787.63;;;13.35;70.18
4199;BME280;2113;50.946;14.610;2022-09-09T02:15:03;96787.91;;;13.29;70.16
4199;BME280;2113;50.946;14.610;2022-09-09T02:17:45;96790.59;;;13.27;70.00
4199;BME280;2113;50.946;14.610;2022-09-09T02:20:16;96790.84;;;13.23;70.24
4199;BME280;2113;50.946;14.610;2022-09-09T02:22:50;96787.69;;;13.34;70.66
4199;BME280;2113;50.946;14.610;2022-09-09T02:25:24;96788.31;;;13.39;70.84
4199;BME280;2113;50.946;14.610;2022-09-09T02:27:57;96789.31;;;13.36;70.91
4199;BME280;2113;50.946;14.610;2022-09-09T02:30:29;96785.16;;;13.49;71.11
4199;BME280;2113;50.946;14.610;2022-09-09T02:33:07;96785.41;;;13.61;70.50
4199;BME280;2113;50.946;14.610;2022-09-09T02:35:44;96783.09;;;13.55;70.56
4199;BME280;2113;50.946;14.610;2022-09-09T02:38:17;96787.16;;;13.60;70.46
4199;BME280;2113;50.946;14.610;2022-09-09T02:41:01;96785.25;;;13.64;69.99
4199;BME280;2113;50.946;14.610;2022-09-09T02:43:31;96785.66;;;13.56;70.04
4199;BME280;2113;50.946;14.610;2022-09-09T02:46:09;96790.72;;;13.59;69.83
4199;BME280;2113;50.946;14.610;2022-09-09T02:48:46;96790.16;;;13.70;69.07
4199;BME280;2113;50.946;14.610;2022-09-09T02:51:24;96786.75;;;13.52;69.74
4199;BME280;2113;50.946;14.610;2022-09-09T02:54:00;96791.69;;;13.41;69.65
4199;BME280;2113;50.946;14.610;2022-09-09T02:56:36;96787.22;;;13.43;69.84
4199;BME280;2113;50.946;14.610;2022-09-09T02:59:09;96791.84;;;13.38;69.66
4199;BME280;2113;50.946;14.610;2022-09-09T03:01:40;96783.78;;;13.42;69.44
4199;BME280;2113;50.946;14.610;2022-09-09T03:04:09;96789.31;;;13.36;69.76
4199;BME280;2113;50.946;14.610;2022-09-09T03:06:38;96792.97;;;13.49;69.22
4199;BME280;2113;50.946;14.610;2022-09-09T03:09:16;96788.19;;;13.58;69.17
4199;BME280;2113;50.946;14.610;2022-09-09T03:11:44;96800.91;;;13.64;68.56
4199;BME280;2113;50.946;14.610;2022-09-09T03:14:14;96802.66;;;13.47;68.84
4199;BME280;2113;50.946;14.610;2022-09-09T03:16:44;96791.56;;;13.60;69.02
4199;BME280;2113;50.946;14.610;2022-09-09T03:19:13;96807.56;;;13.54;69.30
4199;BME280;2113;50.946;14.610;2022-09-09T03:21:41;96802.00;;;13.60;69.46
4199;BME280;2113;50.946;14.610;2022-09-09T03:24:09;96812.44;;;13.44;70.13
4199;BME280;2113;50.946;14.610;2022-09-09T03:26:37;96810.09;;;13.55;69.45
4199;BME280;2113;50.946;14.610;2022-09-09T03:29:10;96812.38;;;13.61;68.65
4199;BME280;2113;50.946;14.610;2022-09-09T03:31:40;96816.16;;;13.56;68.66
4199;BME280;2113;50.946;14.610;2022-09-09T03:34:11;96810.03;;;13.57;68.84
4199;BME280;2113;50.946;14.610;2022-09-09T03:36:40;96816.09;;;13.57;69.83
4199;BME280;2113;50.946;14.610;2022-09-09T03:39:09;96807.56;;;13.69;69.25
4199;BME280;2113;50.946;14.610;2022-09-09T03:41:38;96809.34;;;13.69;68.92
4199;BME280;2113;50.946;14.610;2022-09-09T03:44:06;96803.22;;;13.70;68.53
4199;BME280;2113;50.946;14.610;2022-09-09T03:46:38;96809.63;;;13.64;68.84
4199;BME280;2113;50.946;14.610;2022-09-09T03:49:06;96804.22;;;13.67;68.90
4199;BME280;2113;50.946;14.610;2022-09-09T03:51:35;96804.28;;;13.66;68.76
4199;BME280;2113;50.946;14.610;2022-09-09T03:54:05;96811.22;;;13.67;68.63
4199;BME280;2113;50.946;14.610;2022-09-09T03:56:36;96813.97;;;13.64;68.82
4199;BME280;2113;50.946;14.610;2022-09-09T03:59:04;96815.81;;;13.62;68.52
4199;BME280;2113;50.946;14.610;2022-09-09T04:01:32;96820.13;;;13.63;68.98
4199;BME280;2113;50.946;14.610;2022-09-09T04:04:00;96813.97;;;13.64;68.34
4199;BME280;2113;50.946;14.610;2022-09-09T04:06:28;96817.19;;;13.69;68.49
4199;BME280;2113;50.946;14.610;2022-09-09T04:08:58;96811.28;;;13.65;68.88
4199;BME280;2113;50.946;14.610;2022-09-09T04:11:30;96813.66;;;13.70;69.12
4199;BME280;2113;50.946;14.610;2022-09-09T04:13:59;96819.31;;;13.78;68.42
4199;BME280;2113;50.946;14.610;2022-09-09T04:16:28;96814.94;;;13.79;68.35
4199;BME280;2113;50.946;14.610;2022-09-09T04:18:57;96815.75;;;13.79;68.10
4199;BME280;2113;50.946;14.610;2022-09-09T04:21:26;96815.66;;;13.65;68.39
4199;BME280;2113;50.946;14.610;2022-09-09T04:23:54;96818.03;;;13.69;68.50
4199;BME280;2113;50.946;14.610;2022-09-09T04:26:24;96814.84;;;13.80;68.49
4199;BME280;2113;50.946;14.610;2022-09-09T04:28:52;96817.13;;;13.86;67.80
4199;BME280;2113;50.946;14.610;2022-09-09T04:31:22;96810.47;;;13.81;67.99
4199;BME280;2113;50.946;14.610;2022-09-09T04:33:53;96813.69;;;13.86;68.14
4199;BME280;2113;50.946;14.610;2022-09-09T04:36:22;96815.81;;;13.95;67.87
4199;BME280;2113;50.946;14.610;2022-09-09T04:38:54;96813.13;;;13.97;67.98
4199;BME280;2113;50.946;14.610;2022-09-09T04:41:23;96819.94;;;13.83;67.91
4199;BME280;2113;50.946;14.610;2022-09-09T04:43:52;96821.66;;;13.67;68.43
4199;BME280;2113;50.946;14.610;2022-09-09T04:46:22;96825.31;;;13.80;68.75
4199;BME280;2113;50.946;14.610;2022-09-09T04:48:50;96823.31;;;14.01;68.66
4199;BME280;2113;50.946;14.610;2022-09-09T04:51:20;96821.28;;;14.06;68.44
4199;BME280;2113;50.946;14.610;2022-09-09T04:53:49;96828.28;;;14.22;68.02
4199;BME280;2113;50.946;14.610;2022-09-09T04:56:19;96820.50;;;14.36;67.73
4199;BME280;2113;50.946;14.610;2022-09-09T04:58:52;96819.44;;;14.24;67.69
4199;BME280;2113;50.946;14.610;2022-09-09T05:01:23;96821.78;;;14.13;67.72
4199;BME280;2113;50.946;14.610;2022-09-09T05:03:56;96817.22;;;14.33;67.70
4199;BME280;2113;50.946;14.610;2022-09-09T05:06:24;96822.47;;;14.48;67.46
4199;BME280;2113;50.946;14.610;2022-09-09T05:08:56;96818.66;;;14.70;67.12
4199;BME280;2113;50.946;14.610;2022-09-09T05:11:29;96830.19;;;14.82;67.20
4199;BME280;2113;50.946;14.610;2022-09-09T05:14:23;96823.09;;;14.84;67.16
4199;BME280;2113;50.946;14.610;2022-09-09T05:16:51;96815.13;;;15.16;66.92
4199;BME280;2113;50.946;14.610;2022-09-09T05:19:21;96820.09;;;15.20;66.80
4199;BME280;2113;50.946;14.610;2022-09-09T05:21:51;96822.50;;;15.54;66.53
4199;BME280;2113;50.946;14.610;2022-09-09T05:24:25;96816.03;;;15.74;66.15
4199;BME280;2113;50.946;14.610;2022-09-09T05:26:56;96823.78;;;15.90;65.91
4199;BME280;2113;50.946;14.610;2022-09-09T05:29:26;96824.72;;;16.03;65.95
4199;BME280;2113;50.946;14.610;2022-09-09T05:31:55;96820.03;;;16.22;65.65
4199;BME280;2113;50.946;14.610;2022-09-09T05:34:24;96807.06;;;16.34;65.28
4199;BME280;2113;50.946;14.610;2022-09-09T05:36:52;96817.66;;;16.59;65.10
4199;BME280;2113;50.946;14.610;2022-09-09T05:39:22;96825.00;;;16.81;64.95
4199;BME280;2113;50.946;14.610;2022-09-09T05:41:50;96821.78;;;17.03;64.36
4199;BME280;2113;50.946;14.610;2022-09-09T05:44:19;96822.78;;;17.28;64.06
4199;BME280;2113;50.946;14.610;2022-09-09T05:46:48;96829.63;;;17.44;62.95
4199;BME280;2113;50.946;14.610;2022-09-09T05:49:17;96834.84;;;17.31;62.70
4199;BME280;2113;50.946;14.610;2022-09-09T05:51:47;96829.19;;;17.50;62.89
4199;BME280;2113;50.946;14.610;2022-09-09T05:54:18;96834.25;;;17.53;62.36
4199;BME280;2113;50.946;14.610;2022-09-09T05:56:49;96832.56;;;17.77;62.44
4199;BME280;2113;50.946;14.610;2022-09-09T05:59:18;96832.13;;;17.84;62.00
4199;BME280;2113;50.946;14.610;2022-09-09T06:01:46;96825.63;;;18.02;61.17
4199;BME280;2113;50.946;14.610;2022-09-09T06:04:25;96831.63;;;18.41;60.90
4199;BME280;2113;50.946;14.610;2022-09-09T06:06:53;96836.88;;;18.04;58.35
4199;BME280;2113;50.946;14.610;2022-09-09T06:09:22;96834.25;;;18.04;59.12
4199;BME280;2113;50.946;14.610;2022-09-09T06:11:50;96844.56;;;18.44;59.81
4199;BME280;2113;50.946;14.610;2022-09-09T06:14:20;96849.03;;;18.55;58.87
4199;BME280;2113;50.946;14.610;2022-09-09T06:16:50;96848.41;;;18.88;58.41
4199;BME280;2113;50.946;14.610;2022-09-09T06:19:24;96853.03;;;18.61;58.63
4199;BME280;2113;50.946;14.610;2022-09-09T06:21:56;96856.44;;;18.74;57.62
4199;BME280;2113;50.946;14.610;2022-09-09T06:24:24;96847.69;;;18.86;58.48
4199;BME280;2113;50.946;14.610;2022-09-09T06:26:52;96852.72;;;18.89;59.28
4199;BME280;2113;50.946;14.610;2022-09-09T06:29:26;96850.25;;;18.01;61.05
4199;BME280;2113;50.946;14.610;2022-09-09T06:31:53;96846.34;;;18.44;59.95
4199;BME280;2113;50.946;14.610;2022-09-09T06:34:26;96856.19;;;18.29;60.71
4199;BME280;2113;50.946;14.610;2022-09-09T06:36:57;96853.31;;;18.32;60.37
4199;BME280;2113;50.946;14.610;2022-09-09T06:39:31;96856.78;;;18.69;59.33
4199;BME280;2113;50.946;14.610;2022-09-09T06:41:59;96846.72;;;18.87;59.10
4199;BME280;2113;50.946;14.610;2022-09-09T06:44:53;96860.75;;;18.51;59.87
4199;BME280;2113;50.946;14.610;2022-09-09T06:47:30;96852.22;;;18.10;60.70
4199;BME280;2113;50.946;14.610;2022-09-09T06:50:01;96850.94;;;18.16;61.84
4199;BME280;2113;50.946;14.610;2022-09-09T06:52:32;96850.41;;;18.24;60.57
4199;BME280;2113;50.946;14.610;2022-09-09T06:55:00;96844.50;;;18.33;60.86
4199;BME280;2113;50.946;14.610;2022-09-09T06:57:30;96856.09;;;18.54;60.31
4199;BME280;2113;50.946;14.610;2022-09-09T07:00:07;96852.84;;;18.88;59.96
4199;BME280;2113;50.946;14.610;2022-09-09T07:02:35;96838.88;;;22.38;49.80
4199;BME280;2113;50.946;14.610;2022-09-09T07:05:09;96834.47;;;25.66;41.82
4199;BME280;2113;50.946;14.610;2022-09-09T07:07:39;96831.56;;;27.70;36.56
4199;BME280;2113;50.946;14.610;2022-09-09T07:10:09;96832.56;;;28.73;34.64
4199;BME280;2113;50.946;14.610;2022-09-09T07:12:37;96832.50;;;28.50;34.80
4199;BME280;2113;50.946;14.610;2022-09-09T07:15:09;96827.78;;;31.45;30.61
4199;BME280;2113;50.946;14.610;2022-09-09T07:17:41;96833.69;;;31.55;29.78
4199;BME280;2113;50.946;14.610;2022-09-09T07:20:10;96837.88;;;29.74;32.17
4199;BME280;2113;50.946;14.610;2022-09-09T07:22:39;96834.88;;;31.52;29.90
4199;BME280;2113;50.946;14.610;2022-09-09T07:25:08;96839.44;;;25.87;38.33
4199;BME280;2113;50.946;14.610;2022-09-09T07:27:36;96843.34;;;24.49;42.56
4199;BME280;2113;50.946;14.610;2022-09-09T07:30:06;96843.91;;;23.87;43.43
4199;BME280;2113;50.946;14.610;2022-09-09T07:32:34;96844.28;;;22.36;46.63
4199;BME280;2113;50.946;14.610;2022-09-09T07:35:03;96845.69;;;23.77;44.81
4199;BME280;2113;50.946;14.610;2022-09-09T07:37:36;96850.06;;;22.20;48.05
4199;BME280;2113;50.946;14.610;2022-09-09T07:40:05;96849.22;;;25.78;40.08
4199;BME280;2113;50.946;14.610;2022-09-09T07:42:33;96840.19;;;28.84;33.82
4199;BME280;2113;50.946;14.610;2022-09-09T07:45:01;96828.94;;;32.13;28.69
4199;BME280;2113;50.946;14.610;2022-09-09T07:47:30;96844.28;;;31.91;28.36
4199;BME280;2113;50.946;14.610;2022-09-09T07:49:58;96835.00;;;32.29;27.92
4199;BME280;2113;50.946;14.610;2022-09-09T07:52:29;96839.38;;;32.78;26.84
4199;BME280;2113;50.946;14.610;2022-09-09T07:55:03;96836.03;;;34.63;24.12
4199;BME280;2113;50.946;14.610;2022-09-09T07:57:32;96833.31;;;33.98;25.21
4199;BME280;2113;50.946;14.610;2022-09-09T08:00:03;96830.78;;;35.13;23.41
4199;BME280;2113;50.946;14.610;2022-09-09T08:02:38;96836.44;;;35.94;21.80
4199;BME280;2113;50.946;14.610;2022-09-09T08:05:07;96835.78;;;33.99;24.75
4199;BME280;2113;50.946;14.610;2022-09-09T08:07:37;96840.88;;;32.46;25.55
4199;BME280;2113;50.946;14.610;2022-09-09T08:10:08;96837.84;;;33.17;25.75
4199;BME280;2113;50.946;14.610;2022-09-09T08:12:40;96834.75;;;33.60;25.54
4199;BME280;2113;50.946;14.610;2022-09-09T08:15:28;96839.75;;;31.92;26.90
4199;BME280;2113;50.946;14.610;2022-09-09T08:17:57;96838.22;;;33.01;25.99
4199;BME280;2113;50.946;14.610;2022-09-09T08:20:25;96834.31;;;34.30;24.75
4199;BME280;2113;50.946;14.610;2022-09-09T08:22:55;96832.56;;;35.01;23.98
4199;BME280;2113;50.946;14.610;2022-09-09T08:25:24;96836.81;;;33.18;26.06
4199;BME280;2113;50.946;14.610;2022-09-09T08:27:53;96836.19;;;33.49;25.84
4199;BME280;2113;50.946;14.610;2022-09-09T08:30:21;96844.28;;;34.16;24.60
4199;BME280;2113;50.946;14.610;2022-09-09T08:32:49;96837.38;;;35.81;22.92
4199;BME280;2113;50.946;14.610;2022-09-09T08:35:21;96837.59;;;35.54;22.84
4199;BME280;2113;50.946;14.610;2022-09-09T08:37:53;96834.63;;;34.47;23.90
4199;BME280;2113;50.946;14.610;2022-09-09T08:40:32;96849.06;;;29.77;31.77
4199;BME280;2113;50.946;14.610;2022-09-09T08:43:06;96856.75;;;27.76;35.12
4199;BME280;2113;50.946;14.610;2022-09-09T08:45:37;96859.56;;;26.50;37.59
4199;BME280;2113;50.946;14.610;2022-09-09T08:48:26;96843.16;;;32.07;29.71
4199;BME280;2113;50.946;14.610;2022-09-09T08:50:59;96840.50;;;36.65;21.76
4199;BME280;2113;50.946;14.610;2022-09-09T08:53:38;96838.06;;;37.36;21.72
4199;BME280;2113;50.946;14.610;2022-09-09T08:56:11;96842.25;;;36.34;20.73
4199;BME280;2113;50.946;14.610;2022-09-09T08:58:47;96849.47;;;33.51;24.93
4199;BME280;2113;50.946;14.610;2022-09-09T09:01:32;96842.22;;;33.98;25.20
4199;BME280;2113;50.946;14.610;2022-09-09T09:04:12;96839.69;;;36.76;22.41
4199;BME280;2113;50.946;14.610;2022-09-09T09:06:50;96844.91;;;32.22;26.93
4199;BME280;2113;50.946;14.610;2022-09-09T09:09:27;96845.50;;;30.96;28.10
4199;BME280;2113;50.946;14.610;2022-09-09T09:12:11;96848.91;;;29.09;31.11
4199;BME280;2113;50.946;14.610;2022-09-09T09:14:44;96854.03;;;26.94;35.64
4199;BME280;2113;50.946;14.610;2022-09-09T09:17:16;96852.75;;;25.61;38.06
4199;BME280;2113;50.946;14.610;2022-09-09T09:19:48;96848.13;;;31.54;28.94
4199;BME280;2113;50.946;14.610;2022-09-09T09:22:19;96841.34;;;30.93;28.55
4199;BME280;2113;50.946;14.610;2022-09-09T09:24:54;96841.44;;;31.71;29.03
4199;BME280;2113;50.946;14.610;2022-09-09T09:27:31;96836.47;;;32.73;25.49
4199;BME280;2113;50.946;14.610;2022-09-09T09:30:01;96833.81;;;32.38;27.00
4199;BME280;2113;50.946;14.610;2022-09-09T09:32:54;96829.06;;;33.02;25.39
4199;BME280;2113;50.946;14.610;2022-09-09T09:35:24;96832.88;;;32.17;26.01
4199;BME280;2113;50.946;14.610;2022-09-09T09:37:52;96835.72;;;30.37;28.92
4199;BME280;2113;50.946;14.610;2022-09-09T09:40:48;96834.19;;;31.65;27.72
4199;BME280;2113;50.946;14.610;2022-09-09T09:43:22;96831.69;;;32.68;26.52
4199;BME280;2113;50.946;14.610;2022-09-09T09:45:52;96827.41;;;32.87;26.52
4199;BME280;2113;50.946;14.610;2022-09-09T09:48:40;96833.97;;;31.95;28.28
4199;BME280;2113;50.946;14.610;2022-09-09T09:51:10;96833.75;;;32.25;26.26
4199;BME280;2113;50.946;14.610;2022-09-09T09:53:41;96838.59;;;31.08;28.11
4199;BME280;2113;50.946;14.610;2022-09-09T09:56:13;96826.06;;;29.98;30.91
4199;BME280;2113;50.946;14.610;2022-09-09T09:58:50;96829.22;;;29.63;30.17
4199;BME280;2113;50.946;14.610;2022-09-09T10:01:27;96838.28;;;30.45;28.95
4199;BME280;2113;50.946;14.610;2022-09-09T10:03:59;96826.06;;;31.37;28.60
4199;BME280;2113;50.946;14.610;2022-09-09T10:06:31;96837.06;;;29.88;29.81
4199;BME280;2113;50.946;14.610;2022-09-09T10:09:01;96837.34;;;30.89;28.88
4199;BME280;2113;50.946;14.610;2022-09-09T10:11:40;96837.91;;;30.63;29.93
4199;BME280;2113;50.946;14.610;2022-09-09T10:14:19;96830.50;;;30.50;29.80
4199;BME280;2113;50.946;14.610;2022-09-09T10:17:04;96833.66;;;28.87;32.00
4199;BME280;2113;50.946;14.610;2022-09-09T10:19:36;96827.38;;;28.40;32.35
4199;BME280;2113;50.946;14.610;2022-09-09T10:22:15;96831.66;;;28.10;32.62
4199;BME280;2113;50.946;14.610;2022-09-09T10:25:09;96831.53;;;28.82;31.68
4199;BME280;2113;50.946;14.610;2022-09-09T10:27:51;96826.75;;;29.62;29.34
4199;BME280;2113;50.946;14.610;2022-09-09T10:30:36;96823.00;;;28.79;31.47
4199;BME280;2113;50.946;14.610;2022-09-09T10:33:10;96816.16;;;28.53;31.73
4199;BME280;2113;50.946;14.610;2022-09-09T10:35:45;96824.94;;;28.93;32.10
4199;BME280;2113;50.946;14.610;2022-09-09T10:38:20;96814.75;;;31.20;28.99
4199;BME280;2113;50.946;14.610;2022-09-09T10:41:13;96823.47;;;29.90;31.65
4199;BME280;2113;50.946;14.610;2022-09-09T10:44:04;96823.28;;;30.21;30.53
4199;BME280;2113;50.946;14.610;2022-09-09T10:49:43;96825.00;;;28.06;32.69
4199;BME280;2113;50.946;14.610;2022-09-09T10:52:22;96837.63;;;25.87;37.60
4199;BME280;2113;50.946;14.610;2022-09-09T10:54:59;96826.09;;;26.05;36.67
4199;BME280;2113;50.946;14.610;2022-09-09T10:57:34;96824.19;;;26.74;34.87
4199;BME280;2113;50.946;14.610;2022-09-09T11:00:13;96821.84;;;28.42;32.29
4199;BME280;2113;50.946;14.610;2022-09-09T11:02:43;96819.63;;;28.14;31.59
4199;BME280;2113;50.946;14.610;2022-09-09T11:05:17;96815.34;;;27.97;33.00
4199;BME280;2113;50.946;14.610;2022-09-09T11:07:49;96817.75;;;28.62;31.55
4199;BME280;2113;50.946;14.610;2022-09-09T11:10:24;96818.75;;;28.30;30.76
4199;BME280;2113;50.946;14.610;2022-09-09T11:13:01;96821.59;;;28.20;33.41
4199;BME280;2113;50.946;14.610;2022-09-09T11:15:35;96820.81;;;28.82;32.46
4199;BME280;2113;50.946;14.610;2022-09-09T11:18:09;96831.03;;;28.00;33.17
4199;BME280;2113;50.946;14.610;2022-09-09T11:20:40;96833.69;;;26.76;35.29
4199;BME280;2113;50.946;14.610;2022-09-09T11:23:12;96827.56;;;26.50;36.88
4199;BME280;2113;50.946;14.610;2022-09-09T11:25:45;96820.41;;;27.18;34.97
4199;BME280;2113;50.946;14.610;2022-09-09T11:28:35;96821.53;;;26.82;36.87
4199;BME280;2113;50.946;14.610;2022-09-09T11:31:21;96808.97;;;28.06;34.25
4199;BME280;2113;50.946;14.610;2022-09-09T11:34:21;96811.13;;;28.10;34.14
4199;BME280;2113;50.946;14.610;2022-09-09T11:37:14;96805.16;;;28.40;32.75
4199;BME280;2113;50.946;14.610;2022-09-09T11:42:33;96819.25;;;26.45;35.78
4199;BME280;2113;50.946;14.610;2022-09-09T11:45:09;96807.78;;;25.31;38.72
4199;BME280;2113;50.946;14.610;2022-09-09T11:47:38;96812.66;;;25.36;39.05
4199;BME280;2113;50.946;14.610;2022-09-09T11:50:27;96818.38;;;25.05;39.28
4199;BME280;2113;50.946;14.610;2022-09-09T11:53:05;96809.72;;;25.03;40.14
4199;BME280;2113;50.946;14.610;2022-09-09T11:55:34;96807.94;;;24.58;41.09
4199;BME280;2113;50.946;14.610;2022-09-09T11:58:04;96815.09;;;24.75;40.99
4199;BME280;2113;50.946;14.610;2022-09-09T12:00:35;96813.88;;;25.24;41.74
4199;BME280;2113;50.946;14.610;2022-09-09T12:03:05;96817.28;;;24.98;41.12
4199;BME280;2113;50.946;14.610;2022-09-09T12:05:39;96806.25;;;26.50;40.34
4199;BME280;2113;50.946;14.610;2022-09-09T12:08:09;96805.97;;;26.61;38.98
4199;BME280;2113;50.946;14.610;2022-09-09T12:10:39;96803.63;;;26.15;38.72
4199;BME280;2113;50.946;14.610;2022-09-09T12:13:15;96809.84;;;25.64;40.65
4199;BME280;2113;50.946;14.610;2022-09-09T12:15:49;96807.56;;;25.69;40.82
4199;BME280;2113;50.946;14.610;2022-09-09T12:18:23;96814.16;;;25.91;40.46
4199;BME280;2113;50.946;14.610;2022-09-09T12:20:58;96811.34;;;26.27;40.63
4199;BME280;2113;50.946;14.610;2022-09-09T12:23:35;96802.56;;;27.26;38.26
4199;BME280;2113;50.946;14.610;2022-09-09T12:26:18;96786.13;;;29.20;35.99
4199;BME280;2113;50.946;14.610;2022-09-09T12:28:58;96789.19;;;29.32;34.04
4199;BME280;2113;50.946;14.610;2022-09-09T12:31:35;96784.47;;;30.32;31.97
4199;BME280;2113;50.946;14.610;2022-09-09T12:34:16;96783.69;;;28.87;34.26
4199;BME280;2113;50.946;14.610;2022-09-09T12:36:52;96792.28;;;25.79;34.85
4199;BME280;2113;50.946;14.610;2022-09-09T12:39:28;96793.97;;;25.54;35.89
4199;BME280;2113;50.946;14.610;2022-09-09T12:41:57;96783.72;;;27.20;34.67
4199;BME280;2113;50.946;14.610;2022-09-09T12:44:26;96771.34;;;27.60;33.95
4199;BME280;2113;50.946;14.610;2022-09-09T12:46:57;96768.31;;;27.71;34.04
4199;BME280;2113;50.946;14.610;2022-09-09T12:49:30;96766.88;;;26.94;34.43
4199;BME280;2113;50.946;14.610;2022-09-09T12:52:04;96762.38;;;27.11;34.94
4199;BME280;2113;50.946;14.610;2022-09-09T12:54:35;96757.53;;;26.23;35.81
4199;BME280;2113;50.946;14.610;2022-09-09T12:57:04;96760.19;;;25.54;35.65
4199;BME280;2113;50.946;14.610;2022-09-09T12:59:37;96755.75;;;25.55;36.15
4199;BME280;2113;50.946;14.610;2022-09-09T13:02:19;96745.00;;;26.58;35.70
4199;BME280;2113;50.946;14.610;2022-09-09T13:04:48;96747.25;;;26.28;36.02
4199;BME280;2113;50.946;14.610;2022-09-09T13:07:19;96745.50;;;26.62;35.21
4199;BME280;2113;50.946;14.610;2022-09-09T13:09:49;96756.47;;;26.59;34.99
4199;BME280;2113;50.946;14.610;2022-09-09T13:12:19;96752.94;;;26.42;36.46
4199;BME280;2113;50.946;14.610;2022-09-09T13:14:49;96748.66;;;25.72;36.56
4199;BME280;2113;50.946;14.610;2022-09-09T13:17:21;96760.16;;;25.02;38.22
4199;BME280;2113;50.946;14.610;2022-09-09T13:19:50;96759.97;;;25.21;39.15
4199;BME280;2113;50.946;14.610;2022-09-09T13:22:29;96757.28;;;25.66;39.01
4199;BME280;2113;50.946;14.610;2022-09-09T13:25:03;96759.78;;;24.61;38.68
4199;BME280;2113;50.946;14.610;2022-09-09T13:27:33;96771.78;;;25.01;39.59
4199;BME280;2113;50.946;14.610;2022-09-09T13:30:01;96767.06;;;24.95;39.59
4199;BME280;2113;50.946;14.610;2022-09-09T13:32:29;96771.28;;;24.97;38.90
4199;BME280;2113;50.946;14.610;2022-09-09T13:34:59;96767.78;;;24.79;39.72
4199;BME280;2113;50.946;14.610;2022-09-09T13:37:33;96776.03;;;24.12;40.26
4199;BME280;2113;50.946;14.610;2022-09-09T13:40:05;96776.84;;;23.85;41.32
4199;BME280;2113;50.946;14.610;2022-09-09T13:42:37;96776.56;;;24.79;40.13
4199;BME280;2113;50.946;14.610;2022-09-09T13:45:16;96768.44;;;24.99;39.81
4199;BME280;2113;50.946;14.610;2022-09-09T13:47:48;96762.81;;;25.46;39.09
4199;BME280;2113;50.946;14.610;2022-09-09T13:50:19;96763.38;;;24.70;40.25